Time;durP1;ratioP1;P1;durP2;ratioP2;P2;SDS_P1;SDS_P2;PMS_P1;PMS_P2;Temp;Humidity;BMP_temperature;BMP_pressure;BME280_temperature;BME280_humidity;BME280_pressure;Samples;Min_cycle;Max_cycle;Signal;HPM_P1;HPM_P2
2022/03/13 00:01:51;;;;;;;;;;;;;;;10.36;56.72;101492.78;5097296;28;19926;-74
2022/03/13 00:04:18;;;;;;;;;;;;;;;10.30;57.29;101497.66;5101224;28;19928;-74
2022/03/13 00:06:44;;;;;;;;;;;;;;;10.37;57.16;101494.53;5102783;28;19919;-74
2022/03/13 00:09:12;;;;;;;;;;;;;;;10.26;57.96;101501.84;5103578;28;19916;-74
2022/03/13 00:11:38;;;;;;;;;;;;;;;10.22;58.31;101502.47;5104154;28;19945;-75
2022/03/13 00:14:05;;;;;;;;;;;;;;;10.24;58.01;101505.16;5101436;28;19927;-74
2022/03/13 00:16:30;;;;;;;;;;;;;;;10.45;56.95;101495.72;5098686;28;19920;-74
2022/03/13 00:18:58;;;;;;;;;;;;;;;10.37;57.45;101497.09;5100396;28;20315;-73
2022/03/13 00:21:24;;;;;;;;;;;;;;;10.56;56.94;101491.00;5095570;28;19924;-74
2022/03/13 00:23:49;;;;;;;;;;;;;;;10.38;57.97;101488.59;5105689;28;19931;-74
2022/03/13 00:26:15;;;;;;;;;;;;;;;10.45;57.83;101496.59;5102234;27;19928;-74
2022/03/13 00:28:41;;;;;;;;;;;;;;;10.37;58.19;101492.81;5104060;27;19916;-75
2022/03/13 00:31:06;;;;;;;;;;;;;;;10.34;58.20;101495.28;5099420;28;19924;-74
2022/03/13 00:33:32;;;;;;;;;;;;;;;10.35;57.74;101486.75;5104051;28;19916;-74
2022/03/13 00:35:57;;;;;;;;;;;;;;;10.35;58.09;101483.31;5098747;28;20148;-74
2022/03/13 00:38:25;;;;;;;;;;;;;;;10.34;57.64;101490.16;5102129;28;19972;-73
2022/03/13 00:40:51;;;;;;;;;;;;;;;10.29;57.43;101481.38;5100979;28;19922;-73
2022/03/13 00:43:17;;;;;;;;;;;;;;;10.21;59.01;101481.06;5103489;28;19928;-74
2022/03/13 00:45:42;;;;;;;;;;;;;;;10.23;57.92;101465.72;5103078;28;19939;-74
2022/03/13 00:48:08;;;;;;;;;;;;;;;10.17;58.61;101470.59;5103589;28;19919;-74
2022/03/13 00:50:33;;;;;;;;;;;;;;;10.13;58.24;101466.13;5085598;28;20283;-74
2022/03/13 00:52:58;;;;;;;;;;;;;;;10.09;59.00;101456.56;5105138;28;19976;-75
2022/03/13 00:55:24;;;;;;;;;;;;;;;10.09;58.40;101472.84;5104087;28;20122;-74
2022/03/13 00:57:49;;;;;;;;;;;;;;;10.06;58.43;101469.28;5106276;28;19928;-74
2022/03/13 01:00:14;;;;;;;;;;;;;;;10.05;58.55;101468.41;5101254;28;20290;-74
2022/03/13 01:02:40;;;;;;;;;;;;;;;10.02;59.00;101464.84;5100559;28;20577;-74
2022/03/13 01:05:09;;;;;;;;;;;;;;;9.89;59.13;101461.78;5105294;28;19931;-74
2022/03/13 01:07:35;;;;;;;;;;;;;;;9.82;59.55;101462.34;5103982;28;19924;-74
2022/03/13 01:10:00;;;;;;;;;;;;;;;9.78;58.77;101457.03;5102723;28;19927;-74
2022/03/13 01:12:25;;;;;;;;;;;;;;;9.67;59.97;101454.91;5102616;28;19924;-74
2022/03/13 01:14:51;;;;;;;;;;;;;;;9.68;59.39;101454.06;5100345;28;19924;-74
2022/03/13 01:17:18;;;;;;;;;;;;;;;9.60;60.63;101452.91;5101551;28;20398;-74
2022/03/13 01:19:43;;;;;;;;;;;;;;;9.63;60.24;101447.00;5098705;28;19961;-74
2022/03/13 01:22:11;;;;;;;;;;;;;;;9.57;60.52;101445.06;5102244;28;19923;-74
2022/03/13 01:24:43;;;;;;;;;;;;;;;9.55;61.12;101441.56;5102516;28;19920;-74
2022/03/13 01:27:08;;;;;;;;;;;;;;;9.45;60.80;101446.25;5101842;28;19991;-73
2022/03/13 01:29:34;;;;;;;;;;;;;;;9.33;61.94;101428.63;5094216;28;20786;-74
2022/03/13 01:32:00;;;;;;;;;;;;;;;9.26;62.54;101424.94;5103473;28;19945;-74
2022/03/13 01:34:35;;;;;;;;;;;;;;;9.20;62.76;101431.50;5100205;28;20378;-74
2022/03/13 01:37:00;;;;;;;;;;;;;;;9.17;62.45;101428.81;5100342;28;19920;-74
2022/03/13 01:39:26;;;;;;;;;;;;;;;9.11;62.72;101419.16;5102732;28;19928;-74
2022/03/13 01:41:51;;;;;;;;;;;;;;;9.07;61.56;101414.72;5100237;28;20320;-73
2022/03/13 01:44:18;;;;;;;;;;;;;;;8.98;62.62;101415.19;5099176;28;19919;-74
2022/03/13 01:46:44;;;;;;;;;;;;;;;8.91;63.81;101418.28;5095553;28;19942;-75
2022/03/13 01:49:09;;;;;;;;;;;;;;;8.86;64.42;101414.66;5098866;28;20401;-75
2022/03/13 01:51:35;;;;;;;;;;;;;;;8.78;64.16;101406.63;5101619;28;19927;-74
2022/03/13 01:54:02;;;;;;;;;;;;;;;8.76;64.32;101403.13;5098513;28;20396;-75
2022/03/13 01:56:28;;;;;;;;;;;;;;;8.72;64.03;101397.78;5100435;28;19928;-74
2022/03/13 01:58:55;;;;;;;;;;;;;;;8.69;64.65;101401.09;5104047;28;20290;-74
2022/03/13 02:01:21;;;;;;;;;;;;;;;8.68;64.10;101389.09;5099290;28;19947;-75
2022/03/13 02:03:47;;;;;;;;;;;;;;;8.63;65.12;101388.00;5098883;28;19926;-74
2022/03/13 02:06:13;;;;;;;;;;;;;;;8.66;63.89;101403.50;5101719;28;19923;-74
2022/03/13 02:08:38;;;;;;;;;;;;;;;8.62;65.55;101406.78;5100272;28;19915;-74
2022/03/13 02:11:04;;;;;;;;;;;;;;;8.59;65.23;101393.81;5102593;28;19923;-74
2022/03/13 02:13:32;;;;;;;;;;;;;;;8.57;65.71;101392.88;5103144;28;19915;-75
2022/03/13 02:15:57;;;;;;;;;;;;;;;8.59;65.45;101389.56;5102359;28;19990;-74
2022/03/13 02:18:22;;;;;;;;;;;;;;;8.58;65.57;101385.25;5103494;28;19924;-74
2022/03/13 02:20:47;;;;;;;;;;;;;;;8.63;63.47;101389.69;5107519;28;20377;-74
2022/03/13 02:23:15;;;;;;;;;;;;;;;8.58;66.25;101387.81;5107960;28;19928;-74
2022/03/13 02:25:41;;;;;;;;;;;;;;;8.59;66.08;101388.69;5105134;28;19916;-74
2022/03/13 02:28:06;;;;;;;;;;;;;;;8.63;65.54;101384.56;5105723;28;19931;-74
2022/03/13 02:30:31;;;;;;;;;;;;;;;8.63;65.59;101387.13;5104561;28;19920;-74
2022/03/13 02:32:57;;;;;;;;;;;;;;;8.65;65.27;101391.50;5107929;28;20038;-74
2022/03/13 02:35:22;;;;;;;;;;;;;;;8.64;65.67;101392.31;5105444;28;19934;-74
2022/03/13 02:37:48;;;;;;;;;;;;;;;8.61;65.11;101397.31;5104900;28;19916;-74
2022/03/13 02:40:22;;;;;;;;;;;;;;;8.58;65.41;101392.06;5103709;28;19955;-74
2022/03/13 02:42:47;;;;;;;;;;;;;;;8.66;63.74;101392.38;5107689;28;19930;-73
2022/03/13 02:45:25;;;;;;;;;;;;;;;8.53;64.07;101399.53;5106080;28;19920;-74
2022/03/13 02:47:51;;;;;;;;;;;;;;;8.51;64.03;101390.91;5105268;28;19953;-74
2022/03/13 02:50:17;;;;;;;;;;;;;;;8.51;65.60;101392.59;5105939;28;19928;-74
2022/03/13 02:52:42;;;;;;;;;;;;;;;8.52;66.02;101386.66;5104496;28;20298;-74
2022/03/13 02:55:08;;;;;;;;;;;;;;;8.54;64.37;101379.91;5106766;28;19928;-75
2022/03/13 02:57:35;;;;;;;;;;;;;;;8.54;64.68;101373.09;5102398;28;20382;-74
2022/03/13 03:00:00;;;;;;;;;;;;;;;8.50;64.04;101373.78;5105689;28;19920;-74
2022/03/13 03:02:26;;;;;;;;;;;;;;;8.47;65.12;101383.00;5107101;28;19935;-74
2022/03/13 03:04:54;;;;;;;;;;;;;;;8.46;65.25;101379.56;5108139;28;19920;-74
2022/03/13 03:07:20;;;;;;;;;;;;;;;8.45;65.67;101375.25;5106655;28;19919;-74
2022/03/13 03:09:45;;;;;;;;;;;;;;;8.50;65.39;101372.91;5105306;28;20363;-74
2022/03/13 03:12:11;;;;;;;;;;;;;;;8.55;64.44;101381.66;5108569;28;19969;-74
2022/03/13 03:14:36;;;;;;;;;;;;;;;8.52;64.71;101373.84;5105932;28;19920;-74
2022/03/13 03:17:02;;;;;;;;;;;;;;;8.63;64.80;101374.31;5097971;28;21172;-73
2022/03/13 03:19:28;;;;;;;;;;;;;;;8.56;65.34;101370.63;5103379;28;20018;-74
2022/03/13 03:21:54;;;;;;;;;;;;;;;8.53;66.51;101366.22;5108058;28;19915;-73
2022/03/13 03:24:21;;;;;;;;;;;;;;;8.45;67.14;101367.56;5109229;28;20014;-73
2022/03/13 03:26:47;;;;;;;;;;;;;;;8.29;68.60;101359.97;5102829;28;19916;-72
2022/03/13 03:29:13;;;;;;;;;;;;;;;8.21;68.27;101363.88;5106433;27;19931;-74
2022/03/13 03:31:48;;;;;;;;;;;;;;;8.02;70.27;101363.03;5102171;28;19942;-74
2022/03/13 03:34:17;;;;;;;;;;;;;;;7.86;70.24;101368.22;5106117;28;20370;-74
2022/03/13 03:36:50;;;;;;;;;;;;;;;7.76;68.28;101366.91;5105658;28;19919;-74
2022/03/13 03:39:16;;;;;;;;;;;;;;;7.70;72.17;101358.06;5105473;28;19964;-74
2022/03/13 03:41:43;;;;;;;;;;;;;;;7.64;73.09;101362.88;5100536;28;19916;-74
2022/03/13 03:44:08;;;;;;;;;;;;;;;7.52;74.44;101369.19;5104785;28;20335;-74
2022/03/13 03:46:34;;;;;;;;;;;;;;;7.51;74.57;101375.09;5105172;28;19949;-73
2022/03/13 03:49:00;;;;;;;;;;;;;;;7.55;72.84;101367.59;5103023;28;20006;-73
2022/03/13 03:51:25;;;;;;;;;;;;;;;7.65;74.39;101367.22;5106113;28;19934;-73
2022/03/13 03:53:50;;;;;;;;;;;;;;;7.70;74.42;101365.75;5104720;28;20010;-73
2022/03/13 03:56:15;;;;;;;;;;;;;;;7.76;73.59;101360.91;5100514;28;20022;-73
2022/03/13 03:58:41;;;;;;;;;;;;;;;7.83;73.80;101362.09;5101448;28;19955;-73
2022/03/13 04:01:06;;;;;;;;;;;;;;;7.90;73.29;101375.25;5103946;28;20396;-73
2022/03/13 04:03:31;;;;;;;;;;;;;;;7.96;71.81;101367.00;5100551;28;19924;-73
2022/03/13 04:05:57;;;;;;;;;;;;;;;7.96;72.71;101370.44;5104383;28;19920;-73
2022/03/13 04:08:22;;;;;;;;;;;;;;;7.99;72.92;101368.00;5100832;28;19920;-74
2022/03/13 04:10:47;;;;;;;;;;;;;;;8.03;73.17;101359.66;5100488;28;19920;-73
2022/03/13 04:13:12;;;;;;;;;;;;;;;8.05;72.70;101357.16;5103433;27;19926;-73
2022/03/13 04:15:38;;;;;;;;;;;;;;;8.06;72.46;101354.66;5099963;28;19970;-74
2022/03/13 04:18:03;;;;;;;;;;;;;;;8.09;72.10;101360.75;5103859;28;19920;-73
2022/03/13 04:20:29;;;;;;;;;;;;;;;8.09;72.44;101348.81;5102096;28;20014;-73
2022/03/13 04:22:54;;;;;;;;;;;;;;;8.11;72.28;101346.31;5101011;28;19980;-73
2022/03/13 04:25:19;;;;;;;;;;;;;;;8.12;72.68;101359.19;5101500;28;19967;-73
2022/03/13 04:27:45;;;;;;;;;;;;;;;8.09;72.58;101353.06;5105095;28;19974;-74
2022/03/13 04:30:10;;;;;;;;;;;;;;;7.98;72.72;101343.19;5102073;28;19974;-73
2022/03/13 04:32:35;;;;;;;;;;;;;;;7.98;72.74;101345.75;5100449;28;19923;-73
2022/03/13 04:35:01;;;;;;;;;;;;;;;8.00;72.20;101348.38;5101726;28;20000;-73
2022/03/13 04:37:27;;;;;;;;;;;;;;;8.06;72.99;101356.34;5105054;28;19973;-73
2022/03/13 04:39:53;;;;;;;;;;;;;;;8.05;72.37;101352.03;5103213;28;19947;-73
2022/03/13 04:42:18;;;;;;;;;;;;;;;7.96;72.88;101357.63;5101876;28;20374;-74
2022/03/13 04:44:44;;;;;;;;;;;;;;;7.73;73.21;101356.53;5101521;28;19916;-74
2022/03/13 04:47:09;;;;;;;;;;;;;;;7.44;76.19;101359.38;5103855;28;19928;-74
2022/03/13 04:49:34;;;;;;;;;;;;;;;7.30;76.05;101365.53;5105442;28;19997;-74
2022/03/13 04:52:00;;;;;;;;;;;;;;;7.19;76.27;101362.41;5097569;28;19967;-75
2022/03/13 04:54:25;;;;;;;;;;;;;;;7.04;79.96;101359.09;5103821;28;19966;-74
2022/03/13 04:56:51;;;;;;;;;;;;;;;6.92;81.21;101361.94;5108416;27;19963;-74
2022/03/13 04:59:16;;;;;;;;;;;;;;;6.78;83.26;101365.44;5104437;28;20155;-74
2022/03/13 05:01:42;;;;;;;;;;;;;;;6.68;83.68;101357.31;5102026;28;19915;-75
2022/03/13 05:04:07;;;;;;;;;;;;;;;6.61;84.71;101360.38;5104107;28;19928;-74
2022/03/13 05:06:38;;;;;;;;;;;;;;;6.52;85.51;101357.31;5101103;28;19919;-74
2022/03/13 05:09:06;;;;;;;;;;;;;;;6.45;84.72;101350.13;5100742;28;20015;-75
2022/03/13 05:11:32;;;;;;;;;;;;;;;6.35;85.73;101347.88;5100918;28;20401;-75
2022/03/13 05:13:57;;;;;;;;;;;;;;;6.27;86.21;101337.28;5104467;28;19919;-75
2022/03/13 05:16:22;;;;;;;;;;;;;;;6.23;86.59;101343.00;5097826;28;20016;-75
2022/03/13 05:18:48;;;;;;;;;;;;;;;6.17;87.29;101346.13;5103161;28;20239;-75
2022/03/13 05:21:14;;;;;;;;;;;;;;;6.14;85.13;101338.31;5106272;28;20642;-75
2022/03/13 05:23:39;;;;;;;;;;;;;;;6.13;85.48;101336.56;5101033;28;19977;-75
2022/03/13 05:26:04;;;;;;;;;;;;;;;6.06;86.24;101331.00;5104026;28;19970;-75
2022/03/13 05:28:30;;;;;;;;;;;;;;;6.00;85.56;101329.00;5103661;28;19920;-75
2022/03/13 05:30:55;;;;;;;;;;;;;;;5.99;85.44;101334.03;5102089;28;19923;-75
2022/03/13 05:33:20;;;;;;;;;;;;;;;6.02;83.99;101334.22;5103703;28;20290;-75
2022/03/13 05:35:46;;;;;;;;;;;;;;;6.02;84.34;101342.75;5100967;28;19935;-75
2022/03/13 05:38:11;;;;;;;;;;;;;;;6.04;83.78;101333.50;5103023;28;19923;-75
2022/03/13 05:40:36;;;;;;;;;;;;;;;6.07;83.96;101332.81;5102357;28;20328;-75
2022/03/13 05:43:03;;;;;;;;;;;;;;;6.10;84.02;101338.94;5083261;28;19924;-75
2022/03/13 05:45:30;;;;;;;;;;;;;;;6.13;82.87;101338.22;5097747;28;20370;-75
2022/03/13 05:47:56;;;;;;;;;;;;;;;6.18;82.49;101341.88;5102242;28;19924;-74
2022/03/13 05:50:23;;;;;;;;;;;;;;;6.18;82.10;101336.78;5101918;28;21481;-74
2022/03/13 05:52:48;;;;;;;;;;;;;;;6.19;81.19;101343.66;5101767;28;19928;-75
2022/03/13 05:55:14;;;;;;;;;;;;;;;6.28;80.67;101349.25;5104890;28;19946;-75
2022/03/13 05:57:40;;;;;;;;;;;;;;;6.38;80.31;101354.06;5103112;28;20263;-75
2022/03/13 06:00:14;;;;;;;;;;;;;;;6.36;79.53;101353.06;5102593;28;20354;-75
2022/03/13 06:02:40;;;;;;;;;;;;;;;6.40;79.16;101351.56;5104549;28;19991;-74
2022/03/13 06:05:06;;;;;;;;;;;;;;;6.46;79.13;101362.09;5112816;28;19923;-73
2022/03/13 06:07:32;;;;;;;;;;;;;;;6.52;78.46;101359.00;5110994;28;20269;-75
2022/03/13 06:10:02;;;;;;;;;;;;;;;6.54;78.89;101358.25;5102193;28;19972;-75
2022/03/13 06:12:27;;;;;;;;;;;;;;;6.60;78.16;101355.16;5103274;28;19928;-75
2022/03/13 06:14:53;;;;;;;;;;;;;;;6.67;78.15;101352.09;5104993;28;19935;-76
2022/03/13 06:17:18;;;;;;;;;;;;;;;6.75;76.80;101352.53;5088260;28;20567;-74
2022/03/13 06:19:44;;;;;;;;;;;;;;;6.78;77.92;101360.34;5095244;28;19928;-75
2022/03/13 06:22:10;;;;;;;;;;;;;;;6.79;77.46;101357.84;5098749;28;19927;-76
2022/03/13 06:24:36;;;;;;;;;;;;;;;6.83;77.56;101359.78;5100619;28;19920;-75
2022/03/13 06:27:01;;;;;;;;;;;;;;;6.92;77.27;101357.69;5099731;28;19961;-74
2022/03/13 06:29:26;;;;;;;;;;;;;;;7.01;76.39;101366.63;5100500;28;19958;-76
2022/03/13 06:31:52;;;;;;;;;;;;;;;7.06;76.03;101362.63;5101934;28;19915;-74
2022/03/13 06:34:18;;;;;;;;;;;;;;;7.10;76.47;101362.84;5099706;28;19923;-75
2022/03/13 06:36:44;;;;;;;;;;;;;;;7.16;74.72;101357.13;5098214;28;19955;-75
2022/03/13 06:39:09;;;;;;;;;;;;;;;7.16;75.12;101363.16;5101880;28;20327;-76
2022/03/13 06:41:34;;;;;;;;;;;;;;;7.18;74.53;101363.22;5098744;28;19924;-76
2022/03/13 06:43:59;;;;;;;;;;;;;;;7.21;73.79;101355.69;5098917;28;20488;-74
2022/03/13 06:46:25;;;;;;;;;;;;;;;7.21;73.63;101355.69;5103543;28;19931;-74
2022/03/13 06:48:50;;;;;;;;;;;;;;;7.22;74.02;101360.03;5100720;28;19961;-74
2022/03/13 06:51:15;;;;;;;;;;;;;;;7.24;74.19;101360.97;5099429;28;20302;-74
2022/03/13 06:53:41;;;;;;;;;;;;;;;7.28;73.97;101362.91;5096007;28;20032;-75
2022/03/13 06:56:06;;;;;;;;;;;;;;;7.28;73.93;101360.34;5104405;28;19924;-75
2022/03/13 06:58:31;;;;;;;;;;;;;;;7.33;73.26;101353.72;5101117;28;19916;-75
2022/03/13 07:00:57;;;;;;;;;;;;;;;7.37;73.49;101363.31;5102634;28;19927;-74
2022/03/13 07:03:22;;;;;;;;;;;;;;;7.41;72.95;101365.25;5102699;28;19968;-74
2022/03/13 07:05:47;;;;;;;;;;;;;;;7.48;73.38;101366.41;5093452;27;20274;-74
2022/03/13 07:08:13;;;;;;;;;;;;;;;7.52;72.96;101368.28;5097220;28;20162;-74
2022/03/13 07:10:38;;;;;;;;;;;;;;;7.57;71.98;101364.28;5098128;28;20022;-74
2022/03/13 07:13:04;;;;;;;;;;;;;;;7.61;72.76;101361.06;5098368;28;20085;-74
2022/03/13 07:15:30;;;;;;;;;;;;;;;7.68;72.32;101357.13;5100573;28;20236;-74
2022/03/13 07:17:55;;;;;;;;;;;;;;;7.74;71.36;101358.28;5100075;28;19924;-75
2022/03/13 07:20:21;;;;;;;;;;;;;;;7.84;72.07;101357.06;5097117;28;19915;-75
2022/03/13 07:22:46;;;;;;;;;;;;;;;7.93;70.91;101354.91;5099191;28;19945;-74
2022/03/13 07:25:12;;;;;;;;;;;;;;;7.95;70.18;101358.44;5100169;27;19926;-75
2022/03/13 07:27:38;;;;;;;;;;;;;;;7.98;70.82;101361.13;5100477;28;20320;-74
2022/03/13 07:30:04;;;;;;;;;;;;;;;8.01;70.38;101362.97;5098247;28;20362;-74
2022/03/13 07:32:30;;;;;;;;;;;;;;;7.94;71.57;101366.03;5102664;28;20009;-74
2022/03/13 07:34:55;;;;;;;;;;;;;;;7.82;71.58;101368.00;5099213;28;20414;-74
2022/03/13 07:37:20;;;;;;;;;;;;;;;7.79;71.30;101361.06;5101504;28;20030;-74
2022/03/13 07:39:59;;;;;;;;;;;;;;;7.85;71.67;101360.50;5097201;27;19923;-74
2022/03/13 07:42:24;;;;;;;;;;;;;;;7.89;71.22;101352.16;5098568;27;20277;-74
2022/03/13 07:44:49;;;;;;;;;;;;;;;7.90;72.65;101348.78;5097540;28;19920;-74
2022/03/13 07:47:15;;;;;;;;;;;;;;;7.93;72.52;101347.22;5097770;28;19934;-74
2022/03/13 07:49:40;;;;;;;;;;;;;;;8.02;71.43;101349.34;5097742;28;19938;-75
2022/03/13 07:52:06;;;;;;;;;;;;;;;8.12;71.09;101346.38;5113793;27;20294;-75
2022/03/13 07:54:31;;;;;;;;;;;;;;;8.21;70.63;101343.38;5092646;28;19920;-75
2022/03/13 07:56:56;;;;;;;;;;;;;;;8.26;70.03;101350.47;5095353;28;20000;-74
2022/03/13 07:59:22;;;;;;;;;;;;;;;8.32;69.07;101343.06;5098504;28;19934;-74
2022/03/13 08:01:48;;;;;;;;;;;;;;;8.39;68.85;101341.66;5099124;28;20013;-75
2022/03/13 08:04:14;;;;;;;;;;;;;;;8.48;68.12;101344.63;5097334;28;19927;-74
2022/03/13 08:06:39;;;;;;;;;;;;;;;8.53;69.22;101352.53;5094057;28;19923;-75
2022/03/13 08:09:05;;;;;;;;;;;;;;;8.65;68.79;101347.06;5097437;28;19923;-74
2022/03/13 08:11:34;;;;;;;;;;;;;;;8.70;68.41;101349.00;5102611;28;20479;-75
2022/03/13 08:13:59;;;;;;;;;;;;;;;8.81;66.60;101349.47;5104687;28;19934;-74
2022/03/13 08:16:24;;;;;;;;;;;;;;;8.88;66.22;101348.06;5082667;28;19920;-74
2022/03/13 08:18:50;;;;;;;;;;;;;;;8.95;65.69;101343.25;5102468;28;20389;-74
2022/03/13 08:21:16;;;;;;;;;;;;;;;8.98;65.37;101340.81;5096611;28;20087;-75
2022/03/13 08:23:41;;;;;;;;;;;;;;;9.09;65.56;101342.13;5102175;28;19990;-75
2022/03/13 08:26:06;;;;;;;;;;;;;;;9.21;65.30;101346.00;5098454;28;19997;-75
2022/03/13 08:28:32;;;;;;;;;;;;;;;9.33;62.17;101341.38;5098140;28;19927;-75
2022/03/13 08:30:58;;;;;;;;;;;;;;;9.35;63.16;101340.63;5105545;28;19920;-74
2022/03/13 08:33:23;;;;;;;;;;;;;;;9.48;61.98;101341.13;5097069;28;19934;-74
2022/03/13 08:35:48;;;;;;;;;;;;;;;9.49;62.76;101340.31;5100398;28;19924;-75
2022/03/13 08:38:14;;;;;;;;;;;;;;;9.63;62.51;101345.16;5105191;28;19928;-75
2022/03/13 08:40:39;;;;;;;;;;;;;;;9.89;61.70;101342.75;5103440;28;20402;-75
2022/03/13 08:43:05;;;;;;;;;;;;;;;10.23;59.55;101344.00;5103054;28;19942;-74
2022/03/13 08:45:31;;;;;;;;;;;;;;;10.62;60.86;101342.06;5101468;28;20068;-74
2022/03/13 08:47:56;;;;;;;;;;;;;;;11.17;55.95;101349.97;5107917;28;20010;-74
2022/03/13 08:50:21;;;;;;;;;;;;;;;11.13;54.79;101353.25;5098378;28;19928;-74
2022/03/13 08:52:46;;;;;;;;;;;;;;;11.11;55.21;101349.75;5103787;28;20045;-75
2022/03/13 08:55:17;;;;;;;;;;;;;;;11.27;56.10;101352.00;5101984;28;19938;-74
2022/03/13 08:57:43;;;;;;;;;;;;;;;11.57;53.80;101343.53;5101674;28;19930;-74
2022/03/13 09:00:10;;;;;;;;;;;;;;;11.80;53.30;101339.97;5104213;28;19920;-76
2022/03/13 09:02:36;;;;;;;;;;;;;;;12.16;52.73;101336.75;5104908;28;19976;-75
2022/03/13 09:05:01;;;;;;;;;;;;;;;12.45;52.12;101332.44;5102586;28;19916;-74
2022/03/13 09:07:26;;;;;;;;;;;;;;;13.22;49.87;101330.19;5105416;28;19928;-75
2022/03/13 09:09:51;;;;;;;;;;;;;;;14.19;48.12;101326.34;5101632;28;19920;-75
2022/03/13 09:12:17;;;;;;;;;;;;;;;15.43;44.68;101318.28;5100720;28;19928;-76
2022/03/13 09:14:42;;;;;;;;;;;;;;;16.90;42.32;101320.16;5104470;28;19928;-75
2022/03/13 09:17:07;;;;;;;;;;;;;;;17.81;44.89;101319.16;5101417;28;19920;-74
2022/03/13 09:19:33;;;;;;;;;;;;;;;19.60;36.45;101309.13;5105349;28;19930;-74
2022/03/13 09:21:58;;;;;;;;;;;;;;;20.71;33.63;101318.28;5102864;28;19927;-74
2022/03/13 09:24:23;;;;;;;;;;;;;;;21.05;35.85;101308.41;5102622;28;19920;-74
2022/03/13 09:26:48;;;;;;;;;;;;;;;21.60;31.64;101313.22;5100131;28;19997;-74
2022/03/13 09:29:14;;;;;;;;;;;;;;;21.78;35.53;101309.50;5099096;28;21339;-74
2022/03/13 09:31:39;;;;;;;;;;;;;;;22.38;29.34;101317.53;5100560;28;19924;-75
2022/03/13 09:34:04;;;;;;;;;;;;;;;22.43;29.75;101310.47;5103934;28;20330;-73
2022/03/13 09:36:30;;;;;;;;;;;;;;;22.57;32.69;101310.25;5102018;28;19932;-74
2022/03/13 09:38:55;;;;;;;;;;;;;;;22.86;29.68;101305.44;5102867;27;19981;-74
2022/03/13 09:41:21;;;;;;;;;;;;;;;22.53;31.69;101305.97;5101088;28;19923;-74
2022/03/13 09:43:46;;;;;;;;;;;;;;;22.94;28.53;101303.63;5094769;28;19996;-75
2022/03/13 09:46:12;;;;;;;;;;;;;;;22.87;32.27;101314.22;5101818;28;19934;-74
2022/03/13 09:48:37;;;;;;;;;;;;;;;23.50;29.46;101300.91;5105474;28;19924;-75
2022/03/13 09:51:07;;;;;;;;;;;;;;;23.41;29.27;101312.44;5098652;28;19998;-75
2022/03/13 09:53:35;;;;;;;;;;;;;;;23.81;29.59;101312.59;5103088;28;20543;-74
2022/03/13 09:56:03;;;;;;;;;;;;;;;24.70;29.49;101310.72;5104209;28;20491;-75
2022/03/13 09:58:29;;;;;;;;;;;;;;;25.61;24.93;101311.97;5103558;28;19919;-74
2022/03/13 10:00:54;;;;;;;;;;;;;;;25.60;27.68;101304.94;5101073;28;20358;-74
2022/03/13 10:03:19;;;;;;;;;;;;;;;26.06;27.05;101304.56;5106233;28;19934;-74
2022/03/13 10:05:46;;;;;;;;;;;;;;;26.57;25.18;101306.56;5103158;28;19920;-74
2022/03/13 10:08:12;;;;;;;;;;;;;;;26.52;25.32;101300.59;5102580;28;20389;-74
2022/03/13 10:10:42;;;;;;;;;;;;;;;26.14;25.61;101302.56;5102602;28;19981;-74
2022/03/13 10:13:08;;;;;;;;;;;;;;;26.13;24.44;101286.78;5103205;28;19976;-74
2022/03/13 10:15:43;;;;;;;;;;;;;;;25.45;26.27;101292.22;5102793;28;19927;-75
2022/03/13 10:18:12;;;;;;;;;;;;;;;24.87;25.67;101286.63;5101497;28;19959;-74
2022/03/13 10:20:39;;;;;;;;;;;;;;;23.73;27.71;101290.88;5102941;28;19923;-74
2022/03/13 10:23:09;;;;;;;;;;;;;;;23.21;28.59;101285.69;5101096;28;19927;-74
2022/03/13 10:25:36;;;;;;;;;;;;;;;23.11;29.43;101277.09;5105229;28;20370;-74
2022/03/13 10:28:12;;;;;;;;;;;;;;;23.48;27.67;101272.09;5099752;28;20310;-74
2022/03/13 10:30:38;;;;;;;;;;;;;;;23.92;28.60;101278.25;5103965;28;19927;-74
2022/03/13 10:33:03;;;;;;;;;;;;;;;24.37;26.57;101275.53;5103614;28;19915;-76
2022/03/13 10:35:29;;;;;;;;;;;;;;;24.17;27.33;101270.72;5097765;28;19928;-76
2022/03/13 10:37:55;;;;;;;;;;;;;;;24.64;27.54;101254.78;5121956;27;19939;-74
2022/03/13 10:40:22;;;;;;;;;;;;;;;25.02;26.54;101249.44;5108438;28;19927;-74
2022/03/13 10:42:48;;;;;;;;;;;;;;;25.38;25.59;101255.53;5109547;28;19916;-74
2022/03/13 10:45:34;;;;;;;;;;;;;;;25.63;24.42;101258.34;5109395;28;19934;-75
2022/03/13 10:48:18;;;;;;;;;;;;;;;24.85;25.59;101259.50;5109286;28;19920;-74
2022/03/13 10:50:44;;;;;;;;;;;;;;;24.88;25.41;101270.84;5107334;28;19961;-75
2022/03/13 10:53:13;;;;;;;;;;;;;;;24.29;26.07;101254.66;5107334;28;19916;-76
2022/03/13 10:55:38;;;;;;;;;;;;;;;23.75;27.70;101254.94;5105699;28;19972;-74
2022/03/13 10:58:03;;;;;;;;;;;;;;;23.37;27.64;101252.19;5108168;28;19924;-75
2022/03/13 11:00:29;;;;;;;;;;;;;;;22.92;28.40;101262.56;5109188;28;20389;-75
2022/03/13 11:03:07;;;;;;;;;;;;;;;23.33;28.48;101250.50;5107220;28;20279;-74
2022/03/13 11:05:33;;;;;;;;;;;;;;;23.94;27.46;101258.06;5094108;27;20379;-75
2022/03/13 11:07:58;;;;;;;;;;;;;;;23.92;26.74;101259.84;5098240;27;19939;-75
2022/03/13 11:10:23;;;;;;;;;;;;;;;23.80;27.55;101245.22;5098233;27;19920;-75
2022/03/13 11:12:49;;;;;;;;;;;;;;;23.86;27.48;101241.59;5098263;27;19923;-74
2022/03/13 11:15:15;;;;;;;;;;;;;;;24.69;26.16;101247.63;5102544;28;19924;-74
2022/03/13 11:17:43;;;;;;;;;;;;;;;25.14;26.80;101235.13;5095578;28;22067;-74
2022/03/13 11:20:09;;;;;;;;;;;;;;;25.63;25.99;101237.28;5098206;28;20306;-74
2022/03/13 11:22:35;;;;;;;;;;;;;;;26.27;25.61;101237.19;5098481;28;19935;-75
2022/03/13 11:25:02;;;;;;;;;;;;;;;26.70;25.38;101233.19;5101451;28;19928;-75
2022/03/13 11:27:30;;;;;;;;;;;;;;;26.85;23.25;101229.16;5097599;28;20275;-75
2022/03/13 11:29:55;;;;;;;;;;;;;;;25.44;24.83;101222.91;5098174;27;19916;-74
2022/03/13 11:32:31;;;;;;;;;;;;;;;25.16;26.50;101221.91;5100930;28;20014;-74
2022/03/13 11:35:14;;;;;;;;;;;;;;;26.10;25.15;101226.28;5095651;28;19963;-74
2022/03/13 11:37:43;;;;;;;;;;;;;;;26.59;23.45;101223.00;5104754;28;19924;-74
2022/03/13 11:40:09;;;;;;;;;;;;;;;26.71;24.98;101227.84;5094844;28;19931;-74
2022/03/13 11:42:55;;;;;;;;;;;;;;;27.55;24.13;101218.81;5106207;28;20366;-73
2022/03/13 11:45:28;;;;;;;;;;;;;;;28.22;21.81;101225.97;5106270;28;19916;-74
2022/03/13 11:48:14;;;;;;;;;;;;;;;27.46;23.08;101222.63;5103109;28;19965;-74
2022/03/13 11:50:52;;;;;;;;;;;;;;;27.15;23.41;101212.31;5103325;27;19923;-75
2022/03/13 11:53:24;;;;;;;;;;;;;;;27.50;23.36;101204.91;5106289;27;19923;-74
2022/03/13 11:55:59;;;;;;;;;;;;;;;27.75;22.52;101213.66;5105699;27;19920;-75
2022/03/13 11:58:43;;;;;;;;;;;;;;;27.72;22.14;101200.53;5106494;28;19939;-75
2022/03/13 12:01:09;;;;;;;;;;;;;;;27.48;22.59;101204.06;5107529;28;19927;-75
2022/03/13 12:03:34;;;;;;;;;;;;;;;26.62;22.95;101204.41;5105615;28;19922;-75
2022/03/13 12:06:00;;;;;;;;;;;;;;;25.01;24.93;101197.72;5106204;28;19920;-74
2022/03/13 12:08:45;;;;;;;;;;;;;;;24.38;26.54;101198.41;5107560;28;19928;-74
2022/03/13 12:11:34;;;;;;;;;;;;;;;24.66;26.15;101190.72;5104791;28;19916;-74
2022/03/13 12:14:00;;;;;;;;;;;;;;;25.74;24.71;101186.97;5102828;27;19960;-74
2022/03/13 12:16:25;;;;;;;;;;;;;;;25.60;24.66;101200.50;5098219;28;19928;-74
2022/03/13 12:18:58;;;;;;;;;;;;;;;25.72;24.18;101191.34;5107580;28;19946;-74
2022/03/13 12:21:23;;;;;;;;;;;;;;;25.12;25.17;101194.84;5106262;28;20002;-74
2022/03/13 12:23:48;;;;;;;;;;;;;;;25.18;24.76;101189.41;5107439;28;20480;-75
2022/03/13 12:26:15;;;;;;;;;;;;;;;25.09;25.77;101184.38;5103636;28;20338;-75
2022/03/13 12:28:40;;;;;;;;;;;;;;;25.22;25.43;101184.91;5106329;28;19928;-74
2022/03/13 12:31:06;;;;;;;;;;;;;;;25.09;24.51;101185.25;5107522;28;19920;-75
2022/03/13 12:33:33;;;;;;;;;;;;;;;24.53;25.76;101177.03;5099677;28;19966;-75
2022/03/13 12:35:59;;;;;;;;;;;;;;;24.61;26.18;101168.94;5103907;28;19931;-74
2022/03/13 12:38:28;;;;;;;;;;;;;;;24.65;25.55;101178.50;5105196;28;19927;-75
2022/03/13 12:40:54;;;;;;;;;;;;;;;23.98;26.26;101172.19;5105195;28;19934;-75